Decoded Metar for UAUU (KUSTANAY in KAZAKHSTAN) (IATA:KTQ) | Meteo·Mobile Aviation Weather
aviador You're here:

UAUU Decoded Metar

KUSTANAY in KAZAKHSTAN
Report Time2020-01-27 02:30:00
UTC Time2020-01-27 03:04:07
Flight Rules lifr LIFR
Wind270° at 14 kt
W.Decomp.*RWY 33: 4.8 kt HW 13.2 kt LCW
Visibility9999 m
Phenomena:Freezing Fog
Clouds:N/A
Expected CloudBase > 800 ft AGL from Temp-Dew spread
Ceiling200 ft
Temp-13°C (ISA -27)
Dew Point-15°C (85% RH)
AAT-21.4°C
QNH0996 hPa
Density Alt-2,156 ft
Elevation597 ft
Report Wrong Elevation
Raw Report
METAR UAUU 270230Z 27007MPS CAVOK M13/M15 Q0996 R33/420138 TEMPO 0300
FZFG VV002 RMK QFE731/0975=

Extra information for UAUU:More info

Metar Taf Metar & Taf Last 4 Metars F.Rules Stats Wind Profile Meteogram Temp Stats Airport Information Weather charts Add Link Nearby VenuesMetar ALERT Operation Metar Decoded Social comments